sensor_id;sensor_type;location;lat;lon;timestamp;P1;durP1;ratioP1;P2;durP2;ratioP2
71637;SDS011;59485;43.542;-5.676;2022-10-16T00:00:32;11.57;;;2.20;;
71637;SDS011;59485;43.542;-5.676;2022-10-16T00:02:58;7.97;;;2.23;;
71637;SDS011;59485;43.542;-5.676;2022-10-16T00:05:23;7.18;;;2.10;;
71637;SDS011;59485;43.542;-5.676;2022-10-16T00:07:49;8.10;;;2.20;;
71637;SDS011;59485;43.542;-5.676;2022-10-16T00:10:14;8.00;;;2.60;;
71637;SDS011;59485;43.542;-5.676;2022-10-16T00:12:40;8.35;;;2.72;;
71637;SDS011;59485;43.542;-5.676;2022-10-16T00:15:06;7.13;;;2.70;;
71637;SDS011;59485;43.542;-5.676;2022-10-16T00:17:32;8.88;;;2.53;;
71637;SDS011;59485;43.542;-5.676;2022-10-16T00:19:57;14.57;;;2.97;;
71637;SDS011;59485;43.542;-5.676;2022-10-16T00:22:23;9.57;;;2.57;;
71637;SDS011;59485;43.542;-5.676;2022-10-16T00:24:49;9.30;;;2.63;;
71637;SDS011;59485;43.542;-5.676;2022-10-16T00:27:14;7.72;;;2.90;;
71637;SDS011;59485;43.542;-5.676;2022-10-16T00:29:40;6.93;;;3.87;;
71637;SDS011;59485;43.542;-5.676;2022-10-16T00:32:05;11.93;;;4.07;;
71637;SDS011;59485;43.542;-5.676;2022-10-16T00:34:31;12.93;;;3.90;;
71637;SDS011;59485;43.542;-5.676;2022-10-16T00:36:56;9.97;;;3.50;;
71637;SDS011;59485;43.542;-5.676;2022-10-16T00:39:22;8.50;;;3.97;;
71637;SDS011;59485;43.542;-5.676;2022-10-16T00:41:48;10.43;;;4.10;;
71637;SDS011;59485;43.542;-5.676;2022-10-16T00:47:31;9.40;;;3.20;;
71637;SDS011;59485;43.542;-5.676;2022-10-16T00:50:11;9.20;;;3.63;;
71637;SDS011;59485;43.542;-5.676;2022-10-16T00:52:43;13.27;;;3.83;;
71637;SDS011;59485;43.542;-5.676;2022-10-16T00:55:11;11.13;;;5.15;;
71637;SDS011;59485;43.542;-5.676;2022-10-16T00:57:37;9.65;;;4.65;;
71637;SDS011;59485;43.542;-5.676;2022-10-16T01:00:05;9.15;;;4.50;;
71637;SDS011;59485;43.542;-5.676;2022-10-16T01:02:32;11.87;;;4.27;;
71637;SDS011;59485;43.542;-5.676;2022-10-16T01:04:58;10.68;;;4.55;;
71637;SDS011;59485;43.542;-5.676;2022-10-16T01:12:53;12.40;;;3.90;;
71637;SDS011;59485;43.542;-5.676;2022-10-16T01:15:28;9.15;;;3.78;;
71637;SDS011;59485;43.542;-5.676;2022-10-16T01:20:50;9.13;;;3.57;;
71637;SDS011;59485;43.542;-5.676;2022-10-16T01:26:23;11.55;;;4.10;;
71637;SDS011;59485;43.542;-5.676;2022-10-16T01:31:31;11.48;;;4.13;;
71637;SDS011;59485;43.542;-5.676;2022-10-16T01:34:02;7.77;;;4.00;;
71637;SDS011;59485;43.542;-5.676;2022-10-16T01:36:35;10.23;;;4.22;;
71637;SDS011;59485;43.542;-5.676;2022-10-16T01:39:04;12.32;;;5.22;;
71637;SDS011;59485;43.542;-5.676;2022-10-16T01:41:38;10.80;;;4.68;;
71637;SDS011;59485;43.542;-5.676;2022-10-16T01:44:12;10.90;;;4.95;;
71637;SDS011;59485;43.542;-5.676;2022-10-16T01:46:44;9.33;;;4.40;;
71637;SDS011;59485;43.542;-5.676;2022-10-16T01:49:12;11.50;;;5.13;;
71637;SDS011;59485;43.542;-5.676;2022-10-16T01:51:38;16.17;;;4.65;;
71637;SDS011;59485;43.542;-5.676;2022-10-16T01:54:04;11.27;;;4.82;;
71637;SDS011;59485;43.542;-5.676;2022-10-16T01:56:33;12.80;;;4.47;;
71637;SDS011;59485;43.542;-5.676;2022-10-16T01:59:02;11.13;;;4.80;;
71637;SDS011;59485;43.542;-5.676;2022-10-16T02:01:34;11.27;;;4.72;;
71637;SDS011;59485;43.542;-5.676;2022-10-16T02:04:04;10.98;;;4.70;;
71637;SDS011;59485;43.542;-5.676;2022-10-16T02:06:43;13.45;;;5.43;;
71637;SDS011;59485;43.542;-5.676;2022-10-16T02:09:09;14.77;;;5.83;;
71637;SDS011;59485;43.542;-5.676;2022-10-16T02:11:35;10.13;;;5.72;;
71637;SDS011;59485;43.542;-5.676;2022-10-16T02:14:04;11.63;;;5.23;;
71637;SDS011;59485;43.542;-5.676;2022-10-16T02:16:38;11.77;;;5.75;;
71637;SDS011;59485;43.542;-5.676;2022-10-16T02:19:08;9.82;;;5.35;;
71637;SDS011;59485;43.542;-5.676;2022-10-16T02:24:20;9.70;;;4.83;;
71637;SDS011;59485;43.542;-5.676;2022-10-16T02:29:46;10.00;;;4.90;;
71637;SDS011;59485;43.542;-5.676;2022-10-16T02:32:17;10.23;;;5.90;;
71637;SDS011;59485;43.542;-5.676;2022-10-16T02:34:49;15.65;;;5.93;;
71637;SDS011;59485;43.542;-5.676;2022-10-16T02:37:16;12.73;;;6.07;;
71637;SDS011;59485;43.542;-5.676;2022-10-16T02:39:43;10.70;;;5.60;;
71637;SDS011;59485;43.542;-5.676;2022-10-16T02:42:12;11.82;;;6.10;;
71637;SDS011;59485;43.542;-5.676;2022-10-16T02:44:39;9.63;;;5.47;;
71637;SDS011;59485;43.542;-5.676;2022-10-16T02:47:04;13.15;;;5.30;;
71637;SDS011;59485;43.542;-5.676;2022-10-16T02:49:30;13.93;;;6.87;;
71637;SDS011;59485;43.542;-5.676;2022-10-16T02:51:55;12.75;;;6.10;;
71637;SDS011;59485;43.542;-5.676;2022-10-16T02:54:21;13.13;;;5.97;;
71637;SDS011;59485;43.542;-5.676;2022-10-16T02:56:46;13.30;;;6.07;;
71637;SDS011;59485;43.542;-5.676;2022-10-16T02:59:12;12.03;;;6.13;;
71637;SDS011;59485;43.542;-5.676;2022-10-16T03:01:37;14.23;;;6.10;;
71637;SDS011;59485;43.542;-5.676;2022-10-16T03:04:03;12.53;;;6.17;;
71637;SDS011;59485;43.542;-5.676;2022-10-16T03:06:29;14.30;;;6.03;;
71637;SDS011;59485;43.542;-5.676;2022-10-16T03:08:54;10.57;;;5.73;;
71637;SDS011;59485;43.542;-5.676;2022-10-16T03:11:20;9.97;;;5.93;;
71637;SDS011;59485;43.542;-5.676;2022-10-16T03:13:45;10.10;;;5.57;;
71637;SDS011;59485;43.542;-5.676;2022-10-16T03:16:11;12.63;;;6.43;;
71637;SDS011;59485;43.542;-5.676;2022-10-16T03:18:36;12.40;;;5.80;;
71637;SDS011;59485;43.542;-5.676;2022-10-16T03:21:02;10.18;;;5.38;;
71637;SDS011;59485;43.542;-5.676;2022-10-16T03:23:27;11.90;;;6.37;;
71637;SDS011;59485;43.542;-5.676;2022-10-16T03:25:54;11.55;;;6.65;;
71637;SDS011;59485;43.542;-5.676;2022-10-16T03:28:19;18.50;;;8.60;;
71637;SDS011;59485;43.542;-5.676;2022-10-16T03:30:45;14.80;;;8.90;;
71637;SDS011;59485;43.542;-5.676;2022-10-16T03:33:10;13.90;;;9.17;;
71637;SDS011;59485;43.542;-5.676;2022-10-16T03:35:36;11.93;;;7.23;;
71637;SDS011;59485;43.542;-5.676;2022-10-16T03:38:01;12.52;;;7.28;;
71637;SDS011;59485;43.542;-5.676;2022-10-16T03:40:27;14.30;;;6.27;;
71637;SDS011;59485;43.542;-5.676;2022-10-16T03:42:52;10.87;;;6.97;;
71637;SDS011;59485;43.542;-5.676;2022-10-16T03:45:22;15.73;;;6.38;;
71637;SDS011;59485;43.542;-5.676;2022-10-16T03:47:47;10.98;;;6.82;;
71637;SDS011;59485;43.542;-5.676;2022-10-16T03:50:13;14.20;;;5.93;;
71637;SDS011;59485;43.542;-5.676;2022-10-16T03:52:38;12.67;;;6.47;;
71637;SDS011;59485;43.542;-5.676;2022-10-16T03:55:04;10.90;;;6.28;;
71637;SDS011;59485;43.542;-5.676;2022-10-16T03:57:30;10.83;;;6.27;;
71637;SDS011;59485;43.542;-5.676;2022-10-16T03:59:56;13.02;;;6.95;;
71637;SDS011;59485;43.542;-5.676;2022-10-16T04:02:21;12.43;;;6.83;;
71637;SDS011;59485;43.542;-5.676;2022-10-16T04:04:47;15.05;;;7.28;;
71637;SDS011;59485;43.542;-5.676;2022-10-16T04:07:13;12.37;;;6.40;;
71637;SDS011;59485;43.542;-5.676;2022-10-16T04:09:38;15.10;;;7.50;;
71637;SDS011;59485;43.542;-5.676;2022-10-16T04:12:04;12.57;;;7.13;;
71637;SDS011;59485;43.542;-5.676;2022-10-16T04:14:29;11.93;;;6.80;;
71637;SDS011;59485;43.542;-5.676;2022-10-16T04:16:55;11.80;;;6.60;;
71637;SDS011;59485;43.542;-5.676;2022-10-16T04:19:20;11.70;;;5.83;;
71637;SDS011;59485;43.542;-5.676;2022-10-16T04:21:46;14.30;;;6.93;;
71637;SDS011;59485;43.542;-5.676;2022-10-16T04:24:11;11.17;;;6.17;;
71637;SDS011;59485;43.542;-5.676;2022-10-16T04:26:37;12.07;;;5.85;;
71637;SDS011;59485;43.542;-5.676;2022-10-16T04:29:03;14.00;;;6.47;;
71637;SDS011;59485;43.542;-5.676;2022-10-16T04:31:28;15.32;;;7.90;;
71637;SDS011;59485;43.542;-5.676;2022-10-16T04:33:54;12.87;;;7.03;;
71637;SDS011;59485;43.542;-5.676;2022-10-16T04:36:19;11.52;;;6.13;;
71637;SDS011;59485;43.542;-5.676;2022-10-16T04:38:45;10.47;;;6.50;;
71637;SDS011;59485;43.542;-5.676;2022-10-16T04:41:10;9.07;;;5.17;;
71637;SDS011;59485;43.542;-5.676;2022-10-16T04:43:36;10.07;;;5.45;;
71637;SDS011;59485;43.542;-5.676;2022-10-16T04:46:01;9.77;;;5.80;;
71637;SDS011;59485;43.542;-5.676;2022-10-16T04:48:29;13.73;;;6.10;;
71637;SDS011;59485;43.542;-5.676;2022-10-16T04:50:58;10.13;;;6.72;;
71637;SDS011;59485;43.542;-5.676;2022-10-16T04:53:24;12.63;;;6.07;;
71637;SDS011;59485;43.542;-5.676;2022-10-16T04:55:50;13.02;;;6.55;;
71637;SDS011;59485;43.542;-5.676;2022-10-16T04:58:15;12.70;;;7.20;;
71637;SDS011;59485;43.542;-5.676;2022-10-16T05:00:41;11.68;;;7.38;;
71637;SDS011;59485;43.542;-5.676;2022-10-16T05:03:07;12.97;;;7.60;;
71637;SDS011;59485;43.542;-5.676;2022-10-16T05:05:34;12.10;;;7.18;;
71637;SDS011;59485;43.542;-5.676;2022-10-16T05:08:00;13.00;;;8.07;;
71637;SDS011;59485;43.542;-5.676;2022-10-16T05:10:25;18.00;;;9.70;;
71637;SDS011;59485;43.542;-5.676;2022-10-16T05:12:51;15.03;;;8.47;;
71637;SDS011;59485;43.542;-5.676;2022-10-16T05:15:17;18.87;;;9.43;;
71637;SDS011;59485;43.542;-5.676;2022-10-16T05:17:43;28.20;;;11.98;;
71637;SDS011;59485;43.542;-5.676;2022-10-16T05:20:09;34.20;;;13.27;;
71637;SDS011;59485;43.542;-5.676;2022-10-16T05:22:35;31.67;;;12.17;;
71637;SDS011;59485;43.542;-5.676;2022-10-16T05:25:00;29.35;;;11.90;;
71637;SDS011;59485;43.542;-5.676;2022-10-16T05:27:26;23.43;;;10.07;;
71637;SDS011;59485;43.542;-5.676;2022-10-16T05:29:51;24.87;;;10.40;;
71637;SDS011;59485;43.542;-5.676;2022-10-16T05:32:17;20.53;;;8.90;;
71637;SDS011;59485;43.542;-5.676;2022-10-16T05:34:46;23.07;;;10.13;;
71637;SDS011;59485;43.542;-5.676;2022-10-16T05:37:11;17.42;;;9.65;;
71637;SDS011;59485;43.542;-5.676;2022-10-16T05:39:40;17.50;;;8.50;;
71637;SDS011;59485;43.542;-5.676;2022-10-16T05:42:05;16.52;;;9.55;;
71637;SDS011;59485;43.542;-5.676;2022-10-16T05:44:31;17.47;;;9.07;;
71637;SDS011;59485;43.542;-5.676;2022-10-16T05:46:57;21.23;;;9.52;;
71637;SDS011;59485;43.542;-5.676;2022-10-16T05:49:22;19.73;;;10.63;;
71637;SDS011;59485;43.542;-5.676;2022-10-16T05:51:48;18.27;;;10.30;;
71637;SDS011;59485;43.542;-5.676;2022-10-16T05:54:13;23.03;;;12.10;;
71637;SDS011;59485;43.542;-5.676;2022-10-16T05:56:39;21.60;;;12.30;;
71637;SDS011;59485;43.542;-5.676;2022-10-16T05:59:05;25.83;;;13.10;;
71637;SDS011;59485;43.542;-5.676;2022-10-16T06:01:31;27.80;;;14.93;;
71637;SDS011;59485;43.542;-5.676;2022-10-16T06:03:57;25.27;;;14.32;;
71637;SDS011;59485;43.542;-5.676;2022-10-16T06:06:24;25.47;;;14.33;;
71637;SDS011;59485;43.542;-5.676;2022-10-16T06:08:51;31.23;;;15.52;;
71637;SDS011;59485;43.542;-5.676;2022-10-16T06:11:19;27.30;;;15.32;;
71637;SDS011;59485;43.542;-5.676;2022-10-16T06:13:49;32.50;;;16.85;;
71637;SDS011;59485;43.542;-5.676;2022-10-16T06:16:16;32.83;;;16.97;;
71637;SDS011;59485;43.542;-5.676;2022-10-16T06:18:42;38.00;;;19.13;;
71637;SDS011;59485;43.542;-5.676;2022-10-16T06:21:12;35.22;;;18.23;;
71637;SDS011;59485;43.542;-5.676;2022-10-16T06:23:49;32.17;;;18.60;;
71637;SDS011;59485;43.542;-5.676;2022-10-16T06:26:16;35.42;;;17.67;;
71637;SDS011;59485;43.542;-5.676;2022-10-16T06:28:43;29.80;;;16.63;;
71637;SDS011;59485;43.542;-5.676;2022-10-16T06:31:09;35.90;;;17.63;;
71637;SDS011;59485;43.542;-5.676;2022-10-16T06:33:36;31.45;;;16.83;;
71637;SDS011;59485;43.542;-5.676;2022-10-16T06:36:13;32.65;;;18.02;;
71637;SDS011;59485;43.542;-5.676;2022-10-16T06:38:39;21.98;;;13.93;;
71637;SDS011;59485;43.542;-5.676;2022-10-16T06:41:06;20.05;;;12.18;;
71637;SDS011;59485;43.542;-5.676;2022-10-16T06:43:33;18.93;;;11.30;;
71637;SDS011;59485;43.542;-5.676;2022-10-16T06:46:02;16.95;;;10.32;;
71637;SDS011;59485;43.542;-5.676;2022-10-16T06:48:29;18.10;;;11.25;;
71637;SDS011;59485;43.542;-5.676;2022-10-16T06:51:13;18.58;;;10.60;;
71637;SDS011;59485;43.542;-5.676;2022-10-16T06:53:44;12.50;;;7.50;;
71637;SDS011;59485;43.542;-5.676;2022-10-16T06:56:21;16.65;;;8.45;;
71637;SDS011;59485;43.542;-5.676;2022-10-16T06:58:51;12.43;;;7.68;;
71637;SDS011;59485;43.542;-5.676;2022-10-16T07:01:18;11.43;;;7.20;;
71637;SDS011;59485;43.542;-5.676;2022-10-16T07:03:45;11.48;;;7.82;;
71637;SDS011;59485;43.542;-5.676;2022-10-16T07:06:13;11.77;;;7.00;;
71637;SDS011;59485;43.542;-5.676;2022-10-16T07:08:41;12.85;;;6.90;;
71637;SDS011;59485;43.542;-5.676;2022-10-16T07:11:09;12.60;;;7.30;;
71637;SDS011;59485;43.542;-5.676;2022-10-16T07:13:38;13.02;;;7.50;;
71637;SDS011;59485;43.542;-5.676;2022-10-16T07:16:07;14.02;;;8.23;;
71637;SDS011;59485;43.542;-5.676;2022-10-16T07:18:34;12.57;;;7.77;;
71637;SDS011;59485;43.542;-5.676;2022-10-16T07:21:05;12.35;;;7.75;;
71637;SDS011;59485;43.542;-5.676;2022-10-16T07:23:34;14.38;;;9.20;;
71637;SDS011;59485;43.542;-5.676;2022-10-16T07:26:00;17.50;;;9.30;;
71637;SDS011;59485;43.542;-5.676;2022-10-16T07:28:25;14.98;;;9.98;;
71637;SDS011;59485;43.542;-5.676;2022-10-16T07:30:51;15.20;;;11.05;;
71637;SDS011;59485;43.542;-5.676;2022-10-16T07:33:17;15.67;;;11.33;;
71637;SDS011;59485;43.542;-5.676;2022-10-16T07:35:49;16.17;;;11.10;;
71637;SDS011;59485;43.542;-5.676;2022-10-16T07:38:16;16.33;;;11.23;;
71637;SDS011;59485;43.542;-5.676;2022-10-16T07:40:42;16.92;;;11.60;;
71637;SDS011;59485;43.542;-5.676;2022-10-16T07:43:08;23.52;;;13.93;;
71637;SDS011;59485;43.542;-5.676;2022-10-16T07:45:33;19.73;;;11.83;;
71637;SDS011;59485;43.542;-5.676;2022-10-16T07:47:59;22.73;;;13.00;;
71637;SDS011;59485;43.542;-5.676;2022-10-16T07:50:24;19.65;;;12.88;;
71637;SDS011;59485;43.542;-5.676;2022-10-16T07:52:50;18.83;;;11.53;;
71637;SDS011;59485;43.542;-5.676;2022-10-16T07:55:15;20.63;;;12.30;;
71637;SDS011;59485;43.542;-5.676;2022-10-16T07:57:41;23.37;;;12.93;;
71637;SDS011;59485;43.542;-5.676;2022-10-16T08:00:06;22.25;;;12.93;;
71637;SDS011;59485;43.542;-5.676;2022-10-16T08:02:38;21.90;;;12.70;;
71637;SDS011;59485;43.542;-5.676;2022-10-16T08:05:04;19.63;;;12.00;;
71637;SDS011;59485;43.542;-5.676;2022-10-16T08:07:30;24.40;;;14.13;;
71637;SDS011;59485;43.542;-5.676;2022-10-16T08:09:56;21.33;;;13.70;;
71637;SDS011;59485;43.542;-5.676;2022-10-16T08:12:23;23.75;;;13.52;;
71637;SDS011;59485;43.542;-5.676;2022-10-16T08:14:49;25.42;;;14.15;;
71637;SDS011;59485;43.542;-5.676;2022-10-16T08:17:15;21.07;;;13.10;;
71637;SDS011;59485;43.542;-5.676;2022-10-16T08:19:43;23.08;;;14.45;;
71637;SDS011;59485;43.542;-5.676;2022-10-16T08:22:12;23.38;;;13.80;;
71637;SDS011;59485;43.542;-5.676;2022-10-16T08:24:38;22.80;;;14.00;;
71637;SDS011;59485;43.542;-5.676;2022-10-16T08:27:04;24.33;;;13.70;;
71637;SDS011;59485;43.542;-5.676;2022-10-16T08:29:30;25.07;;;13.70;;
71637;SDS011;59485;43.542;-5.676;2022-10-16T08:31:55;23.60;;;13.30;;
71637;SDS011;59485;43.542;-5.676;2022-10-16T08:34:21;26.00;;;13.57;;
71637;SDS011;59485;43.542;-5.676;2022-10-16T08:36:46;21.07;;;12.20;;
71637;SDS011;59485;43.542;-5.676;2022-10-16T08:39:12;17.95;;;11.35;;
71637;SDS011;59485;43.542;-5.676;2022-10-16T08:41:55;19.77;;;11.53;;
71637;SDS011;59485;43.542;-5.676;2022-10-16T08:50:23;18.57;;;11.10;;
71637;SDS011;59485;43.542;-5.676;2022-10-16T08:52:52;19.17;;;10.50;;
71637;SDS011;59485;43.542;-5.676;2022-10-16T08:55:24;20.83;;;11.45;;
71637;SDS011;59485;43.542;-5.676;2022-10-16T08:57:52;18.23;;;10.85;;
71637;SDS011;59485;43.542;-5.676;2022-10-16T09:00:17;18.13;;;11.57;;
71637;SDS011;59485;43.542;-5.676;2022-10-16T09:02:45;18.38;;;10.80;;
71637;SDS011;59485;43.542;-5.676;2022-10-16T09:16:35;18.33;;;11.23;;
71637;SDS011;59485;43.542;-5.676;2022-10-16T09:21:37;17.80;;;9.80;;
71637;SDS011;59485;43.542;-5.676;2022-10-16T09:24:09;16.70;;;10.30;;
71637;SDS011;59485;43.542;-5.676;2022-10-16T09:26:40;16.10;;;9.57;;
71637;SDS011;59485;43.542;-5.676;2022-10-16T09:29:08;17.48;;;9.40;;
71637;SDS011;59485;43.542;-5.676;2022-10-16T09:31:37;15.70;;;9.35;;
71637;SDS011;59485;43.542;-5.676;2022-10-16T09:34:02;18.13;;;8.13;;
71637;SDS011;59485;43.542;-5.676;2022-10-16T09:36:43;14.18;;;7.50;;
71637;SDS011;59485;43.542;-5.676;2022-10-16T09:39:10;15.88;;;7.90;;
71637;SDS011;59485;43.542;-5.676;2022-10-16T09:41:37;12.85;;;7.60;;
71637;SDS011;59485;43.542;-5.676;2022-10-16T09:44:16;12.80;;;8.00;;
71637;SDS011;59485;43.542;-5.676;2022-10-16T09:47:12;13.23;;;8.07;;
71637;SDS011;59485;43.542;-5.676;2022-10-16T09:49:56;12.45;;;7.63;;
71637;SDS011;59485;43.542;-5.676;2022-10-16T09:52:26;14.50;;;7.82;;
71637;SDS011;59485;43.542;-5.676;2022-10-16T09:54:53;16.57;;;8.50;;
71637;SDS011;59485;43.542;-5.676;2022-10-16T09:57:20;13.95;;;7.97;;
71637;SDS011;59485;43.542;-5.676;2022-10-16T09:59:49;14.98;;;7.95;;
71637;SDS011;59485;43.542;-5.676;2022-10-16T10:02:20;16.63;;;8.27;;
71637;SDS011;59485;43.542;-5.676;2022-10-16T10:04:54;13.77;;;7.75;;
71637;SDS011;59485;43.542;-5.676;2022-10-16T10:07:42;17.73;;;8.17;;
71637;SDS011;59485;43.542;-5.676;2022-10-16T10:10:22;16.40;;;7.70;;
71637;SDS011;59485;43.542;-5.676;2022-10-16T10:12:55;15.20;;;8.48;;
71637;SDS011;59485;43.542;-5.676;2022-10-16T10:15:22;14.25;;;7.65;;
71637;SDS011;59485;43.542;-5.676;2022-10-16T10:17:50;14.18;;;8.02;;
71637;SDS011;59485;43.542;-5.676;2022-10-16T10:22:53;20.50;;;8.95;;
71637;SDS011;59485;43.542;-5.676;2022-10-16T10:25:25;19.20;;;10.38;;
71637;SDS011;59485;43.542;-5.676;2022-10-16T10:28:06;25.73;;;10.05;;
71637;SDS011;59485;43.542;-5.676;2022-10-16T10:39:38;28.47;;;10.57;;
71637;SDS011;59485;43.542;-5.676;2022-10-16T10:41:57;36.80;;;12.43;;
71637;SDS011;59485;43.542;-5.676;2022-10-16T10:45:11;34.72;;;12.50;;
71637;SDS011;59485;43.542;-5.676;2022-10-16T10:52:36;28.90;;;11.40;;
71637;SDS011;59485;43.542;-5.676;2022-10-16T10:55:22;42.63;;;12.15;;
71637;SDS011;59485;43.542;-5.676;2022-10-16T11:14:29;29.88;;;8.20;;
71637;SDS011;59485;43.542;-5.676;2022-10-16T11:24:41;13.77;;;5.90;;
71637;SDS011;59485;43.542;-5.676;2022-10-16T11:27:12;24.83;;;7.30;;
71637;SDS011;59485;43.542;-5.676;2022-10-16T11:29:50;23.60;;;8.15;;
71637;SDS011;59485;43.542;-5.676;2022-10-16T11:32:25;31.25;;;9.13;;
71637;SDS011;59485;43.542;-5.676;2022-10-16T11:35:00;20.20;;;9.63;;
71637;SDS011;59485;43.542;-5.676;2022-10-16T11:37:38;21.13;;;9.70;;
71637;SDS011;59485;43.542;-5.676;2022-10-16T11:40:16;18.95;;;7.57;;
71637;SDS011;59485;43.542;-5.676;2022-10-16T11:42:51;15.40;;;7.18;;
71637;SDS011;59485;43.542;-5.676;2022-10-16T11:45:31;22.98;;;9.38;;
71637;SDS011;59485;43.542;-5.676;2022-10-16T11:50:54;19.60;;;7.87;;
71637;SDS011;59485;43.542;-5.676;2022-10-16T11:56:04;16.40;;;8.05;;
71637;SDS011;59485;43.542;-5.676;2022-10-16T12:06:32;23.85;;;9.60;;
71637;SDS011;59485;43.542;-5.676;2022-10-16T12:09:05;19.75;;;9.68;;
71637;SDS011;59485;43.542;-5.676;2022-10-16T12:11:54;21.13;;;9.13;;
71637;SDS011;59485;43.542;-5.676;2022-10-16T12:17:00;22.33;;;9.17;;
71637;SDS011;59485;43.542;-5.676;2022-10-16T12:19:30;19.20;;;8.50;;
71637;SDS011;59485;43.542;-5.676;2022-10-16T12:22:00;30.17;;;9.85;;
71637;SDS011;59485;43.542;-5.676;2022-10-16T12:24:34;19.30;;;8.30;;
71637;SDS011;59485;43.542;-5.676;2022-10-16T12:27:03;15.98;;;7.90;;
71637;SDS011;59485;43.542;-5.676;2022-10-16T12:29:35;19.53;;;7.93;;
71637;SDS011;59485;43.542;-5.676;2022-10-16T12:32:04;17.40;;;7.63;;
71637;SDS011;59485;43.542;-5.676;2022-10-16T12:34:45;20.73;;;8.52;;
71637;SDS011;59485;43.542;-5.676;2022-10-16T12:37:14;18.08;;;7.70;;
71637;SDS011;59485;43.542;-5.676;2022-10-16T12:39:43;21.48;;;8.07;;
71637;SDS011;59485;43.542;-5.676;2022-10-16T12:44:44;17.30;;;7.85;;
71637;SDS011;59485;43.542;-5.676;2022-10-16T12:47:19;15.77;;;6.93;;
71637;SDS011;59485;43.542;-5.676;2022-10-16T12:49:52;18.08;;;6.47;;
71637;SDS011;59485;43.542;-5.676;2022-10-16T12:52:26;16.33;;;5.93;;
71637;SDS011;59485;43.542;-5.676;2022-10-16T12:55:02;13.52;;;6.03;;
71637;SDS011;59485;43.542;-5.676;2022-10-16T13:00:45;15.15;;;4.65;;
71637;SDS011;59485;43.542;-5.676;2022-10-16T13:09:21;10.95;;;3.83;;
71637;SDS011;59485;43.542;-5.676;2022-10-16T13:15:01;11.00;;;4.15;;
71637;SDS011;59485;43.542;-5.676;2022-10-16T13:28:08;9.98;;;3.80;;
71637;SDS011;59485;43.542;-5.676;2022-10-16T13:30:39;7.75;;;3.45;;
71637;SDS011;59485;43.542;-5.676;2022-10-16T13:33:20;9.90;;;3.43;;
71637;SDS011;59485;43.542;-5.676;2022-10-16T13:35:53;9.57;;;3.50;;
71637;SDS011;59485;43.542;-5.676;2022-10-16T13:38:24;12.50;;;3.40;;
71637;SDS011;59485;43.542;-5.676;2022-10-16T13:40:57;12.25;;;4.30;;
71637;SDS011;59485;43.542;-5.676;2022-10-16T13:43:27;11.00;;;4.88;;
71637;SDS011;59485;43.542;-5.676;2022-10-16T13:46:06;11.47;;;3.97;;
71637;SDS011;59485;43.542;-5.676;2022-10-16T13:48:41;23.75;;;12.65;;
71637;SDS011;59485;43.542;-5.676;2022-10-16T13:53:36;20.15;;;4.90;;
71637;SDS011;59485;43.542;-5.676;2022-10-16T13:56:05;16.67;;;4.77;;
71637;SDS011;59485;43.542;-5.676;2022-10-16T13:58:33;23.05;;;5.90;;
71637;SDS011;59485;43.542;-5.676;2022-10-16T14:01:00;25.00;;;4.30;;
71637;SDS011;59485;43.542;-5.676;2022-10-16T14:03:28;10.63;;;3.53;;
71637;SDS011;59485;43.542;-5.676;2022-10-16T14:05:56;16.92;;;4.15;;
71637;SDS011;59485;43.542;-5.676;2022-10-16T14:08:25;14.25;;;3.72;;
71637;SDS011;59485;43.542;-5.676;2022-10-16T14:10:54;14.85;;;5.45;;
71637;SDS011;59485;43.542;-5.676;2022-10-16T14:16:20;22.58;;;5.45;;
71637;SDS011;59485;43.542;-5.676;2022-10-16T14:18:56;19.00;;;5.80;;
71637;SDS011;59485;43.542;-5.676;2022-10-16T14:21:22;26.63;;;7.20;;
71637;SDS011;59485;43.542;-5.676;2022-10-16T14:23:48;29.07;;;6.80;;
71637;SDS011;59485;43.542;-5.676;2022-10-16T14:26:14;25.25;;;5.72;;
71637;SDS011;59485;43.542;-5.676;2022-10-16T14:28:42;32.42;;;6.97;;
71637;SDS011;59485;43.542;-5.676;2022-10-16T14:31:42;21.17;;;5.80;;
71637;SDS011;59485;43.542;-5.676;2022-10-16T14:34:02;17.58;;;5.50;;
71637;SDS011;59485;43.542;-5.676;2022-10-16T14:36:28;22.13;;;6.57;;
71637;SDS011;59485;43.542;-5.676;2022-10-16T14:39:04;24.77;;;6.32;;
71637;SDS011;59485;43.542;-5.676;2022-10-16T14:41:32;21.33;;;6.03;;
71637;SDS011;59485;43.542;-5.676;2022-10-16T14:44:09;26.00;;;6.47;;
71637;SDS011;59485;43.542;-5.676;2022-10-16T14:46:37;22.42;;;5.75;;
71637;SDS011;59485;43.542;-5.676;2022-10-16T14:51:34;17.05;;;5.85;;
71637;SDS011;59485;43.542;-5.676;2022-10-16T14:54:00;18.88;;;4.80;;
71637;SDS011;59485;43.542;-5.676;2022-10-16T14:56:34;16.23;;;5.37;;
71637;SDS011;59485;43.542;-5.676;2022-10-16T14:59:11;14.75;;;5.22;;
71637;SDS011;59485;43.542;-5.676;2022-10-16T15:01:42;12.55;;;4.63;;
71637;SDS011;59485;43.542;-5.676;2022-10-16T15:04:09;16.10;;;5.15;;
71637;SDS011;59485;43.542;-5.676;2022-10-16T15:06:37;16.92;;;5.60;;
71637;SDS011;59485;43.542;-5.676;2022-10-16T15:09:03;20.43;;;6.97;;
71637;SDS011;59485;43.542;-5.676;2022-10-16T15:11:28;16.90;;;5.97;;
71637;SDS011;59485;43.542;-5.676;2022-10-16T15:13:56;14.17;;;5.43;;
71637;SDS011;59485;43.542;-5.676;2022-10-16T15:16:21;21.13;;;5.97;;
71637;SDS011;59485;43.542;-5.676;2022-10-16T15:18:47;24.90;;;6.30;;
71637;SDS011;59485;43.542;-5.676;2022-10-16T15:21:31;23.40;;;5.90;;
71637;SDS011;59485;43.542;-5.676;2022-10-16T15:23:58;30.50;;;7.50;;
71637;SDS011;59485;43.542;-5.676;2022-10-16T15:26:25;22.65;;;6.85;;
71637;SDS011;59485;43.542;-5.676;2022-10-16T15:28:52;27.40;;;6.75;;
71637;SDS011;59485;43.542;-5.676;2022-10-16T15:31:18;35.63;;;7.32;;
71637;SDS011;59485;43.542;-5.676;2022-10-16T15:33:44;33.60;;;7.67;;
71637;SDS011;59485;43.542;-5.676;2022-10-16T15:36:12;33.97;;;7.63;;
71637;SDS011;59485;43.542;-5.676;2022-10-16T15:38:38;35.10;;;8.40;;
71637;SDS011;59485;43.542;-5.676;2022-10-16T15:41:03;33.33;;;9.00;;
71637;SDS011;59485;43.542;-5.676;2022-10-16T15:43:29;34.87;;;9.00;;
71637;SDS011;59485;43.542;-5.676;2022-10-16T15:46:02;53.88;;;11.05;;
71637;SDS011;59485;43.542;-5.676;2022-10-16T15:48:30;54.85;;;10.43;;
71637;SDS011;59485;43.542;-5.676;2022-10-16T15:50:57;40.20;;;10.20;;
71637;SDS011;59485;43.542;-5.676;2022-10-16T15:53:22;38.97;;;9.05;;
71637;SDS011;59485;43.542;-5.676;2022-10-16T15:55:48;30.47;;;8.53;;
71637;SDS011;59485;43.542;-5.676;2022-10-16T15:58:14;29.50;;;7.85;;
71637;SDS011;59485;43.542;-5.676;2022-10-16T16:00:39;36.27;;;8.33;;
71637;SDS011;59485;43.542;-5.676;2022-10-16T16:03:05;30.48;;;7.70;;
71637;SDS011;59485;43.542;-5.676;2022-10-16T16:05:31;33.10;;;8.10;;
71637;SDS011;59485;43.542;-5.676;2022-10-16T16:07:58;30.70;;;7.70;;
71637;SDS011;59485;43.542;-5.676;2022-10-16T16:10:23;47.90;;;7.53;;
71637;SDS011;59485;43.542;-5.676;2022-10-16T16:12:49;30.67;;;7.35;;
71637;SDS011;59485;43.542;-5.676;2022-10-16T16:15:18;24.45;;;6.53;;
71637;SDS011;59485;43.542;-5.676;2022-10-16T16:17:44;30.23;;;7.07;;
71637;SDS011;59485;43.542;-5.676;2022-10-16T16:20:10;30.77;;;7.60;;
71637;SDS011;59485;43.542;-5.676;2022-10-16T16:22:36;36.28;;;7.45;;
71637;SDS011;59485;43.542;-5.676;2022-10-16T16:25:02;29.37;;;7.20;;
71637;SDS011;59485;43.542;-5.676;2022-10-16T16:27:28;36.22;;;8.07;;
71637;SDS011;59485;43.542;-5.676;2022-10-16T16:29:55;26.63;;;7.78;;
71637;SDS011;59485;43.542;-5.676;2022-10-16T16:32:21;33.60;;;8.20;;
71637;SDS011;59485;43.542;-5.676;2022-10-16T16:34:47;60.87;;;12.40;;
71637;SDS011;59485;43.542;-5.676;2022-10-16T16:37:12;41.25;;;10.18;;
71637;SDS011;59485;43.542;-5.676;2022-10-16T16:39:38;59.17;;;12.70;;